Time;durP1;ratioP1;P1;durP2;ratioP2;P2;SDS_P1;SDS_P2;PMS_P1;PMS_P2;Temp;Humidity;BMP_temperature;BMP_pressure;BME280_temperature;BME280_humidity;BME280_pressure;Samples;Min_cycle;Max_cycle;Signal;HPM_P1;HPM_P2
2022/03/12 00:00:50;;;;;;;31.20;10.10;;;;;;;17.94;9.83;99681.81;5088089;28;20039;-76
2022/03/12 00:03:16;;;;;;;30.50;9.98;;;;;;;18.29;9.68;99686.72;5080288;28;20486;-76
2022/03/12 00:05:54;;;;;;;23.65;9.40;;;;;;;18.41;9.47;99681.88;5087443;28;20040;-76
2022/03/12 00:08:34;;;;;;;33.80;9.52;;;;;;;18.62;9.56;99687.25;5090385;28;20397;-76
2022/03/12 00:11:01;;;;;;;30.98;11.15;;;;;;;18.86;9.30;99683.44;5081539;28;20035;-76
2022/03/12 00:13:27;;;;;;;32.58;10.57;;;;;;;18.89;9.29;99680.78;5090408;28;20036;-76
2022/03/12 00:15:58;;;;;;;35.88;11.98;;;;;;;18.67;9.43;99681.41;5088662;28;20024;-76
2022/03/12 00:18:25;;;;;;;31.38;10.35;;;;;;;18.31;9.47;99679.66;5085300;28;20039;-76
2022/03/12 00:20:51;;;;;;;36.30;11.68;;;;;;;17.71;10.11;99674.38;5087052;28;20044;-75
2022/03/12 00:23:20;;;;;;;28.67;11.30;;;;;;;17.64;10.35;99679.75;5065924;28;20081;-76
2022/03/12 00:25:48;;;;;;;27.63;9.68;;;;;;;17.13;10.43;99679.34;5085448;28;20036;-76
2022/03/12 00:28:16;;;;;;;38.47;10.55;;;;;;;17.24;10.32;99676.91;5089589;28;20028;-75
2022/03/12 00:30:45;;;;;;;32.97;11.32;;;;;;;17.49;10.13;99677.66;5088663;28;20097;-75
2022/03/12 00:33:12;;;;;;;;;;;;;;;17.84;9.95;99679.53;5087674;28;20044;-76
2022/03/12 00:35:39;;;;;;;32.72;10.65;;;;;;;17.60;10.02;99673.25;5087790;28;19916;-76
2022/03/12 00:38:05;;;;;;;30.25;10.00;;;;;;;16.62;10.60;99671.72;5090260;28;20050;-76
2022/03/12 00:40:31;;;;;;;33.35;11.20;;;;;;;15.84;11.29;99666.22;5085240;28;20027;-76
2022/03/12 00:42:57;;;;;;;37.40;10.63;;;;;;;16.04;11.23;99667.31;5084038;28;20489;-76
2022/03/12 00:45:24;;;;;;;32.22;10.25;;;;;;;16.64;10.95;99663.84;5081362;28;20024;-76
2022/03/12 00:47:51;;;;;;;37.70;11.63;;;;;;;17.44;10.45;99658.47;5087247;28;20546;-76
2022/03/12 00:50:17;;;;;;;36.42;11.38;;;;;;;17.79;10.12;99652.00;5087444;28;20535;-76
2022/03/12 00:52:43;;;;;;;32.17;12.05;;;;;;;17.98;10.10;99640.22;5082329;28;20036;-75
2022/03/12 00:55:10;;;;;;;37.72;12.50;;;;;;;18.26;9.78;99654.88;5083403;28;20024;-76
2022/03/12 00:57:36;;;;;;;28.33;11.10;;;;;;;18.47;9.60;99651.88;5087394;28;20115;-75
2022/03/12 01:00:04;;;;;;;37.10;12.23;;;;;;;18.42;9.75;99660.47;5088476;28;20379;-76
2022/03/12 01:02:30;;;;;;;35.47;11.48;;;;;;;18.42;9.62;99652.94;5069180;28;20077;-75
2022/03/12 01:04:56;;;;;;;25.27;9.60;;;;;;;18.17;9.85;99657.03;5092199;28;20032;-75
2022/03/12 01:07:22;;;;;;;33.15;11.00;;;;;;;18.52;9.63;99654.41;5070923;28;20536;-75
2022/03/12 01:09:48;;;;;;;29.52;10.32;;;;;;;18.65;9.59;99646.78;5084284;28;20028;-75
2022/03/12 01:12:15;;;;;;;31.83;10.80;;;;;;;18.82;9.54;99651.97;5078091;28;20093;-75
2022/03/12 01:14:41;;;;;;;35.20;12.23;;;;;;;18.99;9.29;99649.63;5087433;28;20040;-75
2022/03/12 01:17:08;;;;;;;29.70;10.93;;;;;;;18.76;9.52;99658.97;5084817;28;20032;-75
2022/03/12 01:19:34;;;;;;;38.65;10.50;;;;;;;18.93;9.34;99655.78;5086476;28;20024;-75
2022/03/12 01:22:03;;;;;;;35.65;11.68;;;;;;;18.97;9.18;99651.97;5070788;28;20043;-75
2022/03/12 01:24:30;;;;;;;31.17;9.73;;;;;;;18.88;9.54;99650.53;5088634;28;20566;-75
2022/03/12 01:26:57;;;;;;;34.63;11.02;;;;;;;18.46;9.77;99661.41;5088102;28;20071;-75
2022/03/12 01:29:23;;;;;;;34.50;12.38;;;;;;;18.37;9.80;99655.97;5087613;28;20028;-75
2022/03/12 01:31:49;;;;;;;34.13;12.48;;;;;;;18.42;9.63;99658.50;5088150;28;20037;-75
2022/03/12 01:34:15;;;;;;;29.23;10.73;;;;;;;18.21;9.89;99657.13;5084060;28;20040;-76
2022/03/12 01:36:41;;;;;;;33.63;10.93;;;;;;;18.24;9.42;99662.78;5079767;28;20040;-75
2022/03/12 01:39:08;;;;;;;28.02;10.60;;;;;;;18.09;9.56;99659.94;5083689;28;20028;-75
2022/03/12 01:41:40;;;;;;;29.00;10.77;;;;;;;18.00;9.74;99651.78;5084544;28;20519;-75
2022/03/12 01:44:07;;;;;;;32.10;10.90;;;;;;;18.05;9.82;99647.94;5084823;28;20131;-75
2022/03/12 01:46:35;;;;;;;26.92;10.65;;;;;;;18.25;9.67;99653.25;5084006;28;20063;-75
2022/03/12 01:49:08;;;;;;;36.30;11.82;;;;;;;18.45;9.38;99662.53;5087102;28;20097;-76
2022/03/12 01:51:36;;;;;;;33.22;11.45;;;;;;;18.42;9.49;99652.13;5088505;28;20043;-76
2022/03/12 01:54:03;;;;;;;30.30;9.52;;;;;;;18.47;9.41;99644.34;5088035;28;20032;-76
2022/03/12 01:56:30;;;;;;;28.48;10.60;;;;;;;18.30;9.76;99647.44;5088868;28;20025;-75
2022/03/12 01:59:00;;;;;;;27.73;9.73;;;;;;;18.27;9.70;99659.31;5088273;28;20028;-74
2022/03/12 02:01:27;;;;;;;;;;;;;;;18.55;9.73;99648.13;5084209;28;20036;-76
2022/03/12 02:03:56;;;;;;;25.40;9.63;;;;;;;18.51;9.45;99639.69;5084693;28;19931;-75
2022/03/12 02:06:24;;;;;;;24.52;8.68;;;;;;;18.52;9.71;99632.97;5082264;28;20032;-75
2022/03/12 02:08:53;;;;;;;29.65;10.57;;;;;;;18.54;9.56;99629.81;5085505;28;20032;-75
2022/03/12 02:11:26;;;;;;;30.52;10.60;;;;;;;18.55;9.74;99629.44;5083293;28;20032;-75
2022/03/12 02:14:10;;;;;;;29.98;11.50;;;;;;;18.29;9.89;99629.16;5084304;28;20024;-75
2022/03/12 02:16:37;;;;;;;32.45;11.13;;;;;;;18.12;9.99;99612.00;5084987;28;20035;-75
2022/03/12 02:19:04;;;;;;;31.05;11.60;;;;;;;17.89;10.11;99614.56;5088590;28;20028;-75
2022/03/12 02:21:44;;;;;;;28.10;10.45;;;;;;;17.60;10.24;99606.59;5084117;28;20105;-75
2022/03/12 02:24:12;;;;;;;30.77;10.00;;;;;;;17.57;10.54;99615.66;5086113;28;20060;-75
2022/03/12 02:26:42;;;;;;;37.92;10.90;;;;;;;17.08;10.75;99621.28;5091623;28;20123;-75
2022/03/12 02:29:12;;;;;;;33.20;10.17;;;;;;;16.92;10.96;99625.16;5086900;28;20035;-75
2022/03/12 02:31:45;;;;;;;28.88;11.32;;;;;;;16.13;11.35;99620.91;5087025;28;20339;-75
2022/03/12 02:34:12;;;;;;;33.95;10.80;;;;;;;16.16;11.29;99613.88;5090944;28;20577;-76
2022/03/12 02:36:39;;;;;;;35.40;12.27;;;;;;;15.94;11.66;99611.53;5091899;28;20511;-75
2022/03/12 02:39:07;;;;;;;35.35;12.27;;;;;;;15.71;11.67;99624.94;5071097;28;20476;-75
2022/03/12 02:41:34;;;;;;;39.63;11.13;;;;;;;16.49;11.28;99625.72;5090052;28;20032;-75
2022/03/12 02:44:00;;;;;;;25.73;9.48;;;;;;;16.81;11.01;99618.44;5091726;28;20036;-75
2022/03/12 02:46:29;;;;;;;32.25;11.20;;;;;;;17.25;10.62;99623.81;5086352;28;20066;-75
2022/03/12 02:48:56;;;;;;;35.85;11.52;;;;;;;17.05;10.85;99618.44;5087580;28;20556;-75
2022/03/12 02:51:23;;;;;;;33.08;10.27;;;;;;;17.50;10.71;99609.88;5087401;28;20050;-75
2022/03/12 02:53:56;;;;;;;30.75;10.63;;;;;;;18.16;10.12;99612.91;5091240;28;20028;-75
2022/03/12 02:56:23;;;;;;;30.85;11.32;;;;;;;18.00;10.26;99609.28;5087376;28;20109;-75
2022/03/12 02:58:50;;;;;;;27.10;10.55;;;;;;;18.04;9.99;99607.44;5089061;28;20048;-76
2022/03/12 03:01:17;;;;;;;28.48;10.90;;;;;;;18.10;10.07;99606.81;5084713;28;20036;-75
2022/03/12 03:03:44;;;;;;;33.97;10.20;;;;;;;18.17;10.05;99604.22;5089916;28;20460;-75
2022/03/12 03:06:13;;;;;;;29.02;9.70;;;;;;;17.41;10.64;99611.97;5092100;28;20036;-75
2022/03/12 03:08:40;;;;;;;35.05;10.88;;;;;;;17.13;10.69;99615.50;5089981;28;20486;-75
2022/03/12 03:11:17;;;;;;;26.88;10.75;;;;;;;17.01;10.89;99620.28;5090212;28;20423;-76
2022/03/12 03:13:44;;;;;;;29.40;10.93;;;;;;;16.68;11.27;99620.44;5089205;28;20036;-76
2022/03/12 03:16:21;;;;;;;34.10;11.95;;;;;;;17.08;10.79;99614.97;5085332;28;20096;-75
2022/03/12 03:18:51;;;;;;;30.98;9.52;;;;;;;17.13;10.58;99631.34;5090595;28;20035;-75
2022/03/12 03:21:19;;;;;;;35.40;12.13;;;;;;;17.67;10.49;99618.72;5090011;28;20078;-75
2022/03/12 03:23:46;;;;;;;31.05;11.65;;;;;;;18.13;10.18;99616.41;5086427;28;20287;-75
2022/03/12 03:26:14;;;;;;;27.90;10.15;;;;;;;18.24;10.02;99611.94;5084039;28;20135;-75
2022/03/12 03:28:41;;;;;;;25.95;9.70;;;;;;;18.31;9.97;99614.91;5084659;28;20028;-75
2022/03/12 03:31:08;;;;;;;31.48;10.23;;;;;;;18.11;9.92;99613.19;5086823;28;20032;-75
2022/03/12 03:33:34;;;;;;;31.88;10.73;;;;;;;18.30;10.03;99616.03;5086460;28;20039;-75
2022/03/12 03:36:00;;;;;;;31.00;10.57;;;;;;;18.15;10.17;99620.44;5083150;28;20158;-75
2022/03/12 03:38:27;;;;;;;31.85;11.43;;;;;;;18.15;10.14;99622.41;5084971;28;20081;-75
2022/03/12 03:40:53;;;;;;;29.27;9.55;;;;;;;18.06;10.38;99625.38;5087776;28;20583;-75
2022/03/12 03:43:22;;;;;;;31.20;11.15;;;;;;;18.19;10.40;99615.78;5085599;28;20028;-75
2022/03/12 03:45:51;;;;;;;29.02;9.85;;;;;;;17.69;10.45;99623.94;5088513;28;20509;-75
2022/03/12 03:48:20;;;;;;;32.75;10.40;;;;;;;17.66;10.74;99624.63;5089536;28;20039;-75
2022/03/12 03:50:47;;;;;;;34.63;10.35;;;;;;;17.80;10.19;99619.47;5084431;28;20032;-75
2022/03/12 03:53:15;;;;;;;27.13;9.75;;;;;;;17.92;10.15;99627.75;5086142;28;20104;-75
2022/03/12 03:55:43;;;;;;;28.00;10.02;;;;;;;17.94;10.06;99617.09;5086540;28;20405;-75
2022/03/12 03:58:12;;;;;;;21.92;8.73;;;;;;;17.61;10.37;99624.88;5088933;28;20027;-75
2022/03/12 04:00:39;;;;;;;26.35;9.50;;;;;;;17.51;10.61;99617.00;5085615;28;20533;-75
2022/03/12 04:03:05;;;;;;;21.75;7.88;;;;;;;17.41;10.70;99626.66;5084455;28;20047;-75
2022/03/12 04:05:34;;;;;;;19.20;6.53;;;;;;;17.40;10.59;99624.22;5089730;28;20385;-75
2022/03/12 04:08:02;;;;;;;18.95;6.55;;;;;;;17.37;10.54;99619.38;5088609;28;20073;-75
2022/03/12 04:10:28;;;;;;;17.92;7.80;;;;;;;17.56;10.47;99616.81;5086062;28;20102;-75
2022/03/12 04:12:58;;;;;;;22.55;7.30;;;;;;;18.07;10.08;99609.47;5087902;28;20051;-75
2022/03/12 04:15:24;;;;;;;23.63;8.57;;;;;;;18.45;9.96;99613.31;5086449;28;20502;-75
2022/03/12 04:17:52;;;;;;;26.17;8.93;;;;;;;18.60;9.59;99612.50;5086869;28;20032;-75
2022/03/12 04:20:19;;;;;;;24.85;7.78;;;;;;;17.89;10.29;99612.59;5084936;28;20028;-75
2022/03/12 04:22:48;;;;;;;25.27;8.85;;;;;;;17.14;10.88;99611.59;5085826;28;20032;-75
2022/03/12 04:25:16;;;;;;;21.27;8.38;;;;;;;16.75;11.16;99614.31;5089322;28;20040;-75
2022/03/12 04:27:44;;;;;;;23.00;7.78;;;;;;;16.87;11.03;99615.13;5086167;28;20024;-75
2022/03/12 04:30:11;;;;;;;20.08;7.25;;;;;;;17.35;10.67;99618.94;5089903;28;20093;-75
2022/03/12 04:32:42;;;;;;;25.77;8.20;;;;;;;17.78;10.49;99599.59;5068629;28;20032;-75
2022/03/12 04:35:09;;;;;;;;;;;;;;;17.95;10.58;99602.03;5084706;28;20078;-75
2022/03/12 04:37:36;;;;;;;21.50;7.93;;;;;;;17.98;10.46;99601.31;5086245;28;20009;-75
2022/03/12 04:40:10;;;;;;;24.67;8.50;;;;;;;17.98;10.14;99595.75;5086585;28;20108;-75
2022/03/12 04:42:42;;;;;;;23.85;8.55;;;;;;;17.78;10.20;99607.94;5080408;28;20033;-76
2022/03/12 04:45:10;;;;;;;22.75;7.97;;;;;;;17.80;10.29;99609.19;5083389;28;20550;-75
2022/03/12 04:47:36;;;;;;;22.75;7.93;;;;;;;17.45;10.51;99610.13;5088442;28;20036;-75
2022/03/12 04:50:06;;;;;;;25.73;8.65;;;;;;;17.45;10.50;99605.38;5089552;28;20402;-75
2022/03/12 04:52:33;;;;;;;25.85;9.25;;;;;;;17.62;10.62;99607.84;5088904;28;20040;-75
2022/03/12 04:54:59;;;;;;;30.52;9.82;;;;;;;17.63;10.62;99595.59;5087891;28;20060;-75
2022/03/12 04:57:25;;;;;;;23.80;8.40;;;;;;;17.27;10.84;99599.28;5089492;28;20028;-75
2022/03/12 04:59:51;;;;;;;27.90;8.98;;;;;;;17.40;10.56;99599.25;5086516;28;20115;-75
2022/03/12 05:02:17;;;;;;;28.02;8.70;;;;;;;17.42;10.45;99600.50;5079124;28;20024;-75
2022/03/12 05:04:43;;;;;;;27.05;8.95;;;;;;;17.56;10.59;99602.91;5085537;28;20032;-76
2022/03/12 05:07:13;;;;;;;22.00;7.63;;;;;;;17.50;10.52;99607.09;5088798;28;20115;-75
2022/03/12 05:09:40;;;;;;;28.13;8.88;;;;;;;17.61;10.31;99595.16;5087740;28;20432;-75
2022/03/12 05:12:08;;;;;;;22.95;8.32;;;;;;;17.79;10.39;99592.84;5083491;28;20032;-75
2022/03/12 05:14:35;;;;;;;28.73;9.18;;;;;;;17.94;10.34;99589.31;5087758;28;20053;-75
2022/03/12 05:17:04;;;;;;;22.95;8.18;;;;;;;18.00;10.32;99590.66;5085434;28;20153;-75
2022/03/12 05:19:31;;;;;;;23.45;8.57;;;;;;;17.64;10.43;99588.09;5085365;28;20059;-75
2022/03/12 05:21:57;;;;;;;22.73;7.72;;;;;;;17.80;10.43;99589.75;5086381;28;20432;-75
2022/03/12 05:24:23;;;;;;;26.50;9.70;;;;;;;18.18;10.21;99582.78;5089173;28;20040;-75
2022/03/12 05:26:50;;;;;;;30.50;9.52;;;;;;;18.29;10.24;99587.47;5084910;28;20131;-75
2022/03/12 05:29:16;;;;;;;28.58;10.10;;;;;;;18.59;10.28;99587.81;5088370;28;20036;-75
2022/03/12 05:31:42;;;;;;;20.95;8.18;;;;;;;18.72;10.25;99586.53;5086583;28;20028;-75
2022/03/12 05:34:08;;;;;;;24.02;7.78;;;;;;;18.63;10.30;99592.31;5088551;28;20056;-75
2022/03/12 05:36:36;;;;;;;18.05;7.28;;;;;;;18.69;10.35;99594.81;5078712;28;20397;-75
2022/03/12 05:39:02;;;;;;;19.67;6.50;;;;;;;18.57;10.24;99596.53;5088595;28;20051;-75
2022/03/12 05:41:29;;;;;;;21.55;7.53;;;;;;;18.48;10.41;99595.88;5087380;28;20040;-75
2022/03/12 05:43:56;;;;;;;28.25;7.57;;;;;;;18.68;10.51;99591.22;5088693;28;20417;-75
2022/03/12 05:46:22;;;;;;;20.25;8.43;;;;;;;18.38;10.75;99593.63;5088207;28;20109;-75
2022/03/12 05:48:48;;;;;;;17.08;7.25;;;;;;;17.91;11.29;99598.34;5086304;28;20024;-75
2022/03/12 05:51:16;;;;;;;17.00;7.13;;;;;;;18.25;11.19;99594.88;5089449;28;20035;-75
2022/03/12 05:53:43;;;;;;;25.13;8.98;;;;;;;17.95;11.17;99597.28;5086505;28;20024;-75
2022/03/12 05:56:10;;;;;;;30.58;9.85;;;;;;;17.99;11.06;99602.13;5087345;28;20031;-75
2022/03/12 05:58:38;;;;;;;25.52;8.60;;;;;;;18.32;10.63;99599.84;5084889;28;20111;-75
2022/03/12 06:01:05;;;;;;;21.88;8.77;;;;;;;18.88;10.33;99592.09;5091301;28;20118;-75
2022/03/12 06:03:31;;;;;;;20.88;7.57;;;;;;;19.28;10.16;99598.97;5092378;28;20032;-75
2022/03/12 06:05:58;;;;;;;25.33;8.40;;;;;;;19.53;10.04;99590.34;5090774;28;20033;-75
2022/03/12 06:08:26;;;;;;;20.08;7.72;;;;;;;19.22;9.95;99592.06;5091182;28;20028;-75
2022/03/12 06:10:55;;;;;;;19.60;7.03;;;;;;;19.11;10.15;99588.22;5090650;28;20036;-75
2022/03/12 06:13:30;;;;;;;20.27;7.05;;;;;;;19.34;10.33;99591.13;5091135;28;20042;-75
2022/03/12 06:16:02;;;;;;;18.83;7.38;;;;;;;19.43;10.21;99590.94;5089584;28;20051;-75
2022/03/12 06:18:33;;;;;;;18.85;6.85;;;;;;;18.73;10.52;99590.13;5093214;28;20028;-75
2022/03/12 06:21:00;;;;;;;18.85;7.05;;;;;;;18.14;10.85;99590.22;5090694;28;20036;-75
2022/03/12 06:23:28;;;;;;;20.15;6.63;;;;;;;18.17;11.40;99589.50;5086909;28;20487;-75
2022/03/12 06:25:55;;;;;;;17.15;6.10;;;;;;;18.12;11.06;99585.03;5084323;28;20040;-75
2022/03/12 06:28:22;;;;;;;12.55;6.00;;;;;;;17.76;11.46;99586.03;5091765;28;20111;-75
2022/03/12 06:30:53;;;;;;;11.38;4.95;;;;;;;18.18;10.79;99588.34;5089338;28;20032;-75
2022/03/12 06:33:20;;;;;;;15.40;6.15;;;;;;;18.30;10.59;99589.06;5084961;28;20037;-75
2022/03/12 06:35:47;;;;;;;13.07;5.40;;;;;;;19.05;10.70;99597.22;5084993;28;20503;-75
2022/03/12 06:38:14;;;;;;;12.45;4.53;;;;;;;19.72;10.09;99593.91;5092727;28;20046;-75
2022/03/12 06:40:41;;;;;;;9.57;4.63;;;;;;;18.57;10.42;99598.50;5071448;28;20024;-75
2022/03/12 06:43:09;;;;;;;13.63;4.93;;;;;;;19.33;10.23;99590.31;5086328;28;20069;-75
2022/03/12 06:45:36;;;;;;;15.93;5.55;;;;;;;19.38;10.39;99597.59;5081666;28;20077;-75
2022/03/12 06:48:02;;;;;;;13.95;5.32;;;;;;;20.34;9.80;99594.72;5089261;28;20028;-75
2022/03/12 06:50:29;;;;;;;12.63;5.00;;;;;;;19.85;10.08;99592.59;5088092;28;20051;-74
2022/03/12 06:52:56;;;;;;;11.98;5.50;;;;;;;19.31;10.56;99603.00;5084509;28;20029;-73
2022/03/12 06:55:24;;;;;;;14.00;5.10;;;;;;;19.85;10.10;99592.59;5085639;28;20093;-73
2022/03/12 06:57:54;;;;;;;13.80;5.20;;;;;;;20.37;9.58;99594.78;5085022;28;20016;-74
2022/03/12 07:00:25;;;;;;;15.38;6.53;;;;;;;19.14;10.33;99604.22;5085389;28;20181;-74
2022/03/12 07:02:52;;;;;;;12.40;5.20;;;;;;;19.35;10.47;99601.09;5090233;28;20482;-74
2022/03/12 07:05:19;;;;;;;12.43;5.35;;;;;;;20.04;10.42;99594.56;5086095;28;20032;-74
2022/03/12 07:07:45;;;;;;;11.55;4.55;;;;;;;20.18;10.02;99588.41;5089308;28;20124;-74
2022/03/12 07:10:11;;;;;;;10.95;4.43;;;;;;;20.60;9.65;99592.78;5086495;28;20040;-74
2022/03/12 07:12:38;;;;;;;10.43;4.55;;;;;;;19.93;9.93;99597.13;5085045;28;20040;-74
2022/03/12 07:15:05;;;;;;;12.65;5.20;;;;;;;19.44;10.55;99601.69;5090223;28;20058;-74
2022/03/12 07:17:31;;;;;;;10.85;3.92;;;;;;;19.03;10.98;99602.38;5081639;28;20047;-74
2022/03/12 07:19:58;;;;;;;18.48;6.30;;;;;;;20.03;10.28;99598.50;5072524;28;20481;-74
2022/03/12 07:22:24;;;;;;;10.02;4.50;;;;;;;20.58;9.79;99597.13;5089854;28;20388;-74
2022/03/12 07:24:50;;;;;;;13.93;4.32;;;;;;;21.30;9.32;99598.63;5087772;28;20047;-74
2022/03/12 07:27:16;;;;;;;12.80;4.35;;;;;;;20.28;9.47;99594.19;5088414;28;20040;-74
2022/03/12 07:29:42;;;;;;;15.68;4.28;;;;;;;19.92;10.21;99600.28;5082754;28;20532;-74
2022/03/12 07:32:09;;;;;;;13.57;5.43;;;;;;;19.64;10.51;99605.31;5086534;28;20044;-75
2022/03/12 07:34:35;;;;;;;13.30;4.25;;;;;;;20.15;10.27;99597.50;5088495;28;20535;-74
2022/03/12 07:37:01;;;;;;;11.43;4.55;;;;;;;21.32;9.58;99606.63;5084471;28;20040;-74
2022/03/12 07:39:27;;;;;;;11.38;4.95;;;;;;;21.69;8.86;99604.72;5090406;28;20032;-75
2022/03/12 07:41:53;;;;;;;10.68;4.25;;;;;;;22.33;8.74;99599.81;5086515;28;20036;-75
2022/03/12 07:44:19;;;;;;;10.77;4.47;;;;;;;22.74;8.24;99595.00;5091414;28;20462;-75
2022/03/12 07:46:46;;;;;;;12.10;4.80;;;;;;;21.00;9.15;99602.56;5088611;28;20043;-75
2022/03/12 07:49:13;;;;;;;10.10;3.47;;;;;;;20.07;9.97;99604.94;5089525;28;20051;-75
2022/03/12 07:51:43;;;;;;;10.75;4.40;;;;;;;18.77;10.40;99610.50;5090501;28;20040;-75
2022/03/12 07:54:12;;;;;;;10.27;3.65;;;;;;;17.73;11.06;99622.06;5085794;28;20532;-75
2022/03/12 07:56:39;;;;;;;11.20;5.05;;;;;;;18.18;10.62;99616.94;5079957;28;20399;-75
2022/03/12 07:59:05;;;;;;;9.35;3.97;;;;;;;17.24;11.38;99622.22;5064571;28;20036;-75
2022/03/12 08:01:31;;;;;;;9.40;3.75;;;;;;;18.96;10.25;99616.13;5084029;28;20115;-75
2022/03/12 08:03:58;;;;;;;9.30;4.00;;;;;;;19.15;10.25;99613.38;5088541;28;20028;-76
2022/03/12 08:06:25;;;;;;;8.68;3.20;;;;;;;20.43;9.59;99603.63;5087553;28;20063;-76
2022/03/12 08:08:51;;;;;;;5.75;2.75;;;;;;;21.93;9.19;99603.41;5086976;28;20089;-75
2022/03/12 08:11:28;;;;;;;6.18;2.83;;;;;;;22.78;8.32;99593.03;5085493;28;20082;-76
2022/03/12 08:14:02;;;;;;;7.65;3.78;;;;;;;23.48;7.89;99584.28;5089926;28;20032;-75
2022/03/12 08:16:30;;;;;;;8.75;3.47;;;;;;;23.32;7.25;99590.16;5090689;28;20027;-76
2022/03/12 08:18:56;;;;;;;6.65;3.55;;;;;;;20.67;9.34;99583.69;5072516;28;20481;-76
2022/03/12 08:21:24;;;;;;;10.73;3.05;;;;;;;21.46;8.85;99587.25;5089576;28;20077;-76
2022/03/12 08:23:50;;;;;;;7.22;3.33;;;;;;;21.91;8.55;99591.81;5090386;28;20063;-76
2022/03/12 08:26:17;;;;;;;8.30;3.50;;;;;;;21.43;8.34;99592.78;5093144;28;20374;-76
2022/03/12 08:28:43;;;;;;;8.00;3.20;;;;;;;21.78;8.57;99587.63;5093310;28;20093;-76
2022/03/12 08:31:09;;;;;;;4.65;2.22;;;;;;;20.09;9.89;99585.06;5092647;28;20020;-76
2022/03/12 08:33:37;;;;;;;6.40;2.53;;;;;;;21.23;8.63;99590.16;5092976;28;20034;-76
2022/03/12 08:36:04;;;;;;;6.22;2.70;;;;;;;21.90;8.43;99588.19;5091599;28;20517;-76
2022/03/12 08:38:32;;;;;;;6.28;3.45;;;;;;;21.22;8.64;99591.31;5087225;28;20075;-75
2022/03/12 08:40:58;;;;;;;7.63;2.42;;;;;;;21.41;8.52;99589.56;5089173;28;20058;-75
2022/03/12 08:43:24;;;;;;;6.22;2.85;;;;;;;20.79;9.57;99588.28;5078344;28;20035;-77
2022/03/12 08:45:51;;;;;;;6.13;3.25;;;;;;;21.41;8.94;99581.19;5089945;28;20028;-76
2022/03/12 08:48:17;;;;;;;5.35;2.03;;;;;;;22.55;8.10;99580.03;5092192;28;20032;-76
2022/03/12 08:50:46;;;;;;;4.13;2.00;;;;;;;23.08;7.84;99585.25;5071908;28;20052;-77
2022/03/12 08:53:12;;;;;;;8.55;2.90;;;;;;;23.07;8.14;99586.41;5091872;28;20024;-76
2022/03/12 08:55:39;;;;;;;4.18;2.20;;;;;;;22.38;8.52;99580.66;5068627;28;20405;-77
2022/03/12 08:58:06;;;;;;;4.35;2.28;;;;;;;23.24;7.39;99580.91;5067911;28;20493;-78
2022/03/12 09:00:32;;;;;;;5.28;2.45;;;;;;;22.68;7.95;99586.16;5084697;28;20073;-76
2022/03/12 09:02:58;;;;;;;5.25;2.33;;;;;;;20.78;9.10;99593.03;5085261;28;20115;-77
2022/03/12 09:05:25;;;;;;;6.32;3.28;;;;;;;21.72;8.42;99591.97;5077829;28;20037;-77
2022/03/12 09:07:52;;;;;;;7.60;3.60;;;;;;;22.77;7.87;99583.81;5079404;28;20032;-77
2022/03/12 09:10:20;;;;;;;6.90;3.08;;;;;;;23.93;7.69;99589.22;5077540;28;20040;-77
2022/03/12 09:12:47;;;;;;;5.85;2.53;;;;;;;24.17;7.48;99590.50;5084596;28;20055;-77
2022/03/12 09:15:16;;;;;;;4.45;2.70;;;;;;;24.31;6.99;99582.13;5070892;28;20046;-77
2022/03/12 09:17:42;;;;;;;8.18;3.08;;;;;;;24.91;6.79;99588.53;5082801;28;20032;-76
2022/03/12 09:20:09;;;;;;;7.63;3.38;;;;;;;25.30;6.02;99580.00;5081715;28;20066;-76
2022/03/12 09:22:36;;;;;;;6.07;3.00;;;;;;;24.48;6.27;99582.13;5081711;28;20035;-77
2022/03/12 09:25:03;;;;;;;7.93;3.35;;;;;;;24.58;6.44;99572.91;5082550;28;20051;-78
2022/03/12 09:27:30;;;;;;;5.38;2.10;;;;;;;24.81;6.29;99580.94;5081292;28;20036;-77
2022/03/12 09:29:56;;;;;;;2.80;2.00;;;;;;;23.45;7.29;99585.06;5081993;28;20101;-77
2022/03/12 09:32:22;;;;;;;5.40;2.97;;;;;;;24.44;6.17;99570.09;5068570;28;20067;-77
2022/03/12 09:34:48;;;;;;;4.22;1.85;;;;;;;25.25;6.48;99572.81;5080491;28;20050;-77
2022/03/12 09:37:14;;;;;;;2.35;1.40;;;;;;;25.11;5.92;99566.44;5081879;28;20409;-77
2022/03/12 09:39:41;;;;;;;6.63;3.80;;;;;;;25.41;6.01;99572.38;5077173;28;20033;-76
2022/03/12 09:42:08;;;;;;;7.68;4.22;;;;;;;25.78;5.73;99571.81;5079816;28;20060;-77
2022/03/12 09:44:35;;;;;;;4.10;1.60;;;;;;;25.94;5.61;99563.69;5085437;28;20024;-76
2022/03/12 09:47:01;;;;;;;3.90;1.77;;;;;;;25.61;5.54;99564.25;5077579;28;20051;-76
2022/03/12 09:49:27;;;;;;;4.20;2.42;;;;;;;26.05;5.79;99551.16;5081467;28;20055;-75
2022/03/12 09:51:53;;;;;;;4.00;2.25;;;;;;;26.15;4.90;99548.69;5078605;28;20036;-76
2022/03/12 09:54:20;;;;;;;4.00;1.50;;;;;;;26.14;5.54;99542.25;5065748;28;20082;-76
2022/03/12 09:56:46;;;;;;;10.13;8.63;;;;;;;26.31;5.72;99538.53;5072989;28;20811;-75
2022/03/12 09:59:12;;;;;;;3.92;2.25;;;;;;;26.41;5.23;99529.19;5077624;28;20066;-76
2022/03/12 10:01:38;;;;;;;2.97;1.67;;;;;;;25.91;5.49;99539.19;5064846;28;20109;-76
2022/03/12 10:04:05;;;;;;;3.65;2.15;;;;;;;22.27;6.39;99540.59;5067704;28;20032;-76
2022/03/12 10:06:31;;;;;;;3.95;1.77;;;;;;;21.89;7.03;99547.44;5090692;28;20056;-76
2022/03/12 10:08:58;;;;;;;3.80;2.10;;;;;;;20.79;7.40;99544.41;5085328;28;20035;-75
2022/03/12 10:11:25;;;;;;;4.50;1.65;;;;;;;22.55;6.78;99534.44;5086685;28;20504;-76
2022/03/12 10:13:51;;;;;;;4.07;2.13;;;;;;;23.66;6.00;99531.88;5085610;28;20054;-75
2022/03/12 10:16:18;;;;;;;2.65;1.85;;;;;;;23.96;6.15;99526.72;5086553;28;20514;-76
2022/03/12 10:18:45;;;;;;;4.93;1.75;;;;;;;23.55;6.40;99522.63;5078226;28;20102;-76
2022/03/12 10:21:12;;;;;;;3.40;1.70;;;;;;;24.63;5.79;99510.72;5079586;28;20435;-75
2022/03/12 10:23:38;;;;;;;4.22;2.03;;;;;;;23.32;6.06;99517.28;5085100;28;20493;-78
2022/03/12 10:26:04;;;;;;;3.70;1.67;;;;;;;23.56;6.09;99513.81;5082707;28;20174;-76
2022/03/12 10:28:36;;;;;;;2.53;1.50;;;;;;;23.54;6.46;99513.41;5081498;28;20445;-75
2022/03/12 10:31:05;;;;;;;3.47;1.75;;;;;;;24.78;5.30;99510.72;5080005;28;20031;-76
2022/03/12 10:33:31;;;;;;;4.35;2.40;;;;;;;23.11;6.09;99506.00;5087638;28;20113;-76
2022/03/12 10:36:10;;;;;;;5.65;2.55;;;;;;;20.91;7.50;99509.88;5082827;28;20090;-75
2022/03/12 10:38:48;;;;;;;4.32;2.10;;;;;;;18.79;7.87;99508.78;5081542;28;20043;-76
2022/03/12 10:41:15;;;;;;;7.22;3.63;;;;;;;17.12;8.88;99497.34;5086691;28;20032;-76
2022/03/12 10:43:54;;;;;;;5.50;2.55;;;;;;;19.73;8.38;99498.00;5083860;28;20020;-76
2022/03/12 10:46:27;;;;;;;4.18;1.83;;;;;;;21.53;7.41;99494.31;5087853;28;20032;-76
2022/03/12 10:48:58;;;;;;;5.53;2.03;;;;;;;24.28;6.58;99484.66;5086890;28;20032;-76
2022/03/12 10:51:42;;;;;;;4.18;2.38;;;;;;;23.17;5.77;99482.00;5088251;28;20428;-77
2022/03/12 10:54:15;;;;;;;5.05;2.50;;;;;;;24.49;6.39;99476.22;5090018;28;20024;-77
2022/03/12 10:56:48;;;;;;;3.05;1.73;;;;;;;25.27;5.87;99474.81;5090458;28;20032;-77
2022/03/12 10:59:20;;;;;;;4.97;2.17;;;;;;;24.76;5.93;99474.63;5073610;28;20056;-77
2022/03/12 11:01:59;;;;;;;2.53;1.58;;;;;;;24.13;5.50;99466.25;5081489;28;20032;-77
2022/03/12 11:04:31;;;;;;;3.38;2.30;;;;;;;25.48;5.42;99473.13;5077798;28;20037;-77
2022/03/12 11:06:59;;;;;;;4.22;2.30;;;;;;;22.45;6.50;99465.97;5087293;28;20032;-77
2022/03/12 11:09:39;;;;;;;5.63;2.40;;;;;;;20.17;6.80;99469.66;5089172;28;20032;-77
2022/03/12 11:12:31;;;;;;;3.35;1.63;;;;;;;22.55;6.98;99461.66;5089463;28;20046;-77
2022/03/12 11:15:15;;;;;;;4.80;2.80;;;;;;;21.39;6.83;99469.00;5091176;28;20032;-77
2022/03/12 11:17:49;;;;;;;3.97;2.42;;;;;;;23.01;6.21;99462.72;5085960;28;20517;-77
2022/03/12 11:20:25;;;;;;;4.22;1.77;;;;;;;24.70;5.32;99448.09;5090163;28;20063;-76
2022/03/12 11:23:04;;;;;;;4.78;2.45;;;;;;;23.59;6.00;99442.13;5086207;28;20058;-78
2022/03/12 11:25:31;;;;;;;3.50;1.70;;;;;;;24.67;5.50;99443.28;5087221;28;20071;-76
2022/03/12 11:28:03;;;;;;;3.08;1.58;;;;;;;25.71;5.73;99446.06;5090576;28;20032;-77
2022/03/12 11:30:36;;;;;;;2.90;1.67;;;;;;;26.73;4.86;99452.81;5083288;28;20032;-78
2022/03/12 11:33:07;;;;;;;2.72;1.40;;;;;;;26.44;4.47;99438.22;5084626;28;20032;-78
2022/03/12 11:35:39;;;;;;;3.97;1.20;;;;;;;25.46;5.89;99439.00;5088133;28;20122;-78